New Bedford, MA

8:33 PM EST on February 26, 2015 (GMT -0500)
West | Change Station
CLOSE
Current Station
Personal Weather Station
Location: New Bedford, MA
Elevation: 43 ft
Nearby Weather Stations

Elev 43 ft 41.63 °N, 70.92 °W | Updated 3 minutes ago

Mostly Cloudy
Mostly Cloudy
19.0 °F
Feels Like 19 °F
N
0.0
Wind Variable Wind from NNE
Gusts 0.0 mph

Today
High -- | Low -- °F
--% Chance of Precip.
Yesterday
High -- | Low -- °F
Precip. -- in
6:23 AM 5:30 PM
Waxing Gibbous, 64% visible
Pressure 30.02 in
Visibility 10.0 miles
Clouds Mostly Cloudy 8000 ft
Windchill 19 °F
Dew Point 14 °F
Humidity 79%
Rainfall 0.00 in
Snow Depth Not available.
UV 0 out of 12
Pollen .40 out of 12
Air Quality Not available.
Flu Activity Not available.
METAR KEWB 270053Z VRB04KT 10SM BKN080 M07/M11 A3002 RMK AO2 SLP166 T10671106

More Conditions Fewer Conditions

Pressure 30.02 in
Visibility 10.0 miles
Clouds Mostly Cloudy 8000 ft
Windchill 19 °F
Dew Point 14 °F
Humidity 79%
Rainfall 0.00 in
Snow Depth Not available.
UV 0 out of 12
Pollen .40 out of 12
Air Quality Not available.
Flu Activity Not available.
METAR KEWB 270053Z VRB04KT 10SM BKN080 M07/M11 A3002 RMK AO2 SLP166 T10671106

More Conditions Fewer Conditions

10-Day Weather Forecast

Almanac

Astronomy

Feb. 26, 2015 Rise Set
Actual Time
Civil Twilight
Nautical Twilight
Astronomical Twilight
Moon
Length of Visible Light
Length of Day
Tomorrow will be .
, % of the Moon is Illuminated

Today's Extremes

State Highs State Lows

Community

WunderPhotos

Upload Photos

1,800,553 photos uploaded!

WunderBlogs® & News

Nearby

Air Quality

  Air Quality AQ Index Pollutant
Not available.

Snow Depth

Station Depth Elevation

Earthquake Activity

City Distance Mag. Time & Date
Minimum magnitude displayed is 2.5.

Coastal Water Temperatures

Place Temperature

Nearby Weather Stations